»·PEaware :: N22153 KF70-KOKB

N22153 :: KF70-KOKB

FLIGHT INFORMATION

Flight Status: Arrived
Operator: Privately registered:
United States
More flights under this callsign
Pilot: Gary C. (3469)
Aircraft: CESSNA 182 SKYLANE
(C182)
More flights by this aircraft type
Origin: KF70
Destination: KOKB Oceanside Mun
United States
More flights between these airports :: More routes between these airports
Route: KF70 KOKB
File this flight plan on PilotEdge
Remarks:
Altitude:
(Current/Filed)
4,500ft
Speed:
(Current/Filed)
125kts
Departed: 05-Feb-15 01:54 PM
Arrived: 05-Feb-15 02:26 PM
Distance/Time
Traveled:
Not Available
Distance/Time
To Go:
Arrived

Flight Plot

Page will automatically refresh every two minutes.


Map Options




Map Legend


Flown Route
Filed Route
Departure Airport
Arrival Airport
Navaid (VOR, NDB)
Fix

Horizontal Profiles

Position Reports

Time Latitude Longitude Heading Altitude Ground
Speed
05-Feb-15 13:38 33.574353 -117.131059 282 1353ft 0kts
05-Feb-15 13:39 33.574353 -117.131059 282 1353ft 0kts
05-Feb-15 13:40 33.574353 -117.131059 282 1353ft 0kts
05-Feb-15 13:41 33.574354 -117.131061 282 1353ft 0kts
05-Feb-15 13:42 33.574354 -117.131065 282 1353ft 0kts
05-Feb-15 13:43 33.574355 -117.131068 282 1353ft 0kts
05-Feb-15 13:44 33.573421 -117.129636 92 1353ft 0kts
05-Feb-15 13:45 33.577519 -117.128537 12 1353ft 38kts
05-Feb-15 13:46 33.582146 -117.126933 76 1353ft 0kts
05-Feb-15 13:47 33.582149 -117.126919 76 1353ft 0kts
05-Feb-15 13:48 33.581519 -117.126084 196 1353ft 9kts
05-Feb-15 13:49 33.563221 -117.131652 195 1867ft 96kts
05-Feb-15 13:50 33.534679 -117.137169 190 2986ft 103kts
05-Feb-15 13:51 33.508035 -117.143271 189 4007ft 95kts
05-Feb-15 13:52 33.480438 -117.148301 191 4462ft 115kts
05-Feb-15 13:53 33.474278 -117.149146 191 4472ft 122kts
05-Feb-15 13:54 33.474278 -117.149146 191 4472ft 122kts
05-Feb-15 13:55 33.474278 -117.149146 191 4472ft 122kts
05-Feb-15 13:56 33.474278 -117.149146 191 4472ft 122kts
05-Feb-15 13:57 33.474278 -117.149146 191 4472ft 122kts
05-Feb-15 13:58 33.474278 -117.149146 191 4472ft 122kts
05-Feb-15 13:59 33.474278 -117.149146 191 4472ft 122kts
05-Feb-15 14:00 33.474278 -117.149146 191 4472ft 122kts
05-Feb-15 14:01 33.474278 -117.149146 191 4472ft 122kts
05-Feb-15 14:02 33.474278 -117.149146 191 4472ft 122kts
05-Feb-15 14:03 33.474278 -117.149146 191 4472ft 122kts
05-Feb-15 14:04 33.474278 -117.149146 191 4472ft 122kts
05-Feb-15 14:05 33.474278 -117.149146 191 4472ft 122kts
05-Feb-15 14:06 33.464941 -117.150459 191 4523ft 125kts
05-Feb-15 14:07 33.428162 -117.157440 194 4533ft 129kts
05-Feb-15 14:08 33.392513 -117.164978 188 4637ft 128kts
05-Feb-15 14:09 33.356415 -117.176056 189 4480ft 134kts
05-Feb-15 14:10 33.319161 -117.182410 183 4100ft 149kts
05-Feb-15 14:11 33.285653 -117.186950 215 4556ft 125kts
05-Feb-15 14:12 33.264435 -117.220034 244 4340ft 96kts
05-Feb-15 14:13 33.254316 -117.248150 249 3403ft 88kts
05-Feb-15 14:14 33.247996 -117.275327 250 2591ft 84kts
05-Feb-15 14:15 33.240540 -117.304520 247 1950ft 95kts
05-Feb-15 14:16 33.232498 -117.333681 252 1511ft 90kts
05-Feb-15 14:17 33.220779 -117.359242 184 1152ft 96kts
05-Feb-15 14:18 33.203106 -117.342671 72 1178ft 107kts
05-Feb-15 14:19 33.218662 -117.326361 342 1085ft 69kts
05-Feb-15 14:20 33.218932 -117.345018 256 349ft 61kts
05-Feb-15 14:21 33.216967 -117.358136 190 31ft 17kts
05-Feb-15 14:22 33.217032 -117.353641 83 31ft 15kts
05-Feb-15 14:23 33.217042 -117.353518 86 31ft 0kts
05-Feb-15 14:24 33.217042 -117.353518 86 31ft 0kts
05-Feb-15 14:25 33.217042 -117.353518 86 31ft 0kts
05-Feb-15 14:26 33.217042 -117.353518 86 31ft 0kts

Navigation Log

Ident Type
Flight plan parsing failed, navigation log unavailable